• Join FlightAware (Why Join?)
  • Login
  • US Flag 
11:57AM EDT


 

Airport Tracker/Info


-or-


 

Live Flight TrackerFlight Track Log ✈ JBU1401 ✈ 06-May-2012 ✈ KFLL - KAUS

Flight Track Log - Related Links

Times and Time Zones

All times are in EDT time to prevent confusion due to time zone crossing. See the JBU1401 flight status page for this flight to view local times or setup timezone preferences in your user account.

Time Position Orientation Groundspeed Altitude Reporting Facility
EDT Latitude Longitude Course Direction KTS MPH feet Rate Location/Type
03:58PM 26.0728 -80.1436 14° North 156 180 600  Level Miami Center
04:03PM 26.2239 -80.1014 292° West 270 311 5,000 900 Climbing Miami Center
04:03PM 26.2339 -80.1294 271° West 269 310 5,200 1,920 Climbing Miami Center
04:04PM 26.2347 -80.1850 280° West 275 316 7,000 2,640 Climbing Miami Center
04:05PM 26.2475 -80.2689 284° West 286 329 9,000 1,320 Climbing Miami Center
04:05PM 26.2550 -80.3036 279° West 289 333 9,000  Level Miami Center
04:06PM 26.2711 -80.4131 280° West 289 333 9,000 660 Level Miami Center
04:07PM 26.2819 -80.4828 285° West 300 345 10,400 1,500 Climbing Miami Center
04:08PM 26.3064 -80.5856 306° West 305 351 12,000 1,800 Climbing Miami Center
04:09PM 26.3586 -80.6661 305° West 334 384 14,000 2,100 Climbing Miami Center
04:10PM 26.4228 -80.7678 306° West 362 417 16,200 2,040 Climbing Miami Center
04:11PM 26.4789 -80.8556 306° West 370 426 18,100 1,800 Climbing Miami Center
04:12PM 26.5492 -80.9625 306° West 382 440 19,900 1,680 Climbing Miami Center
04:13PM 26.6069 -81.0528 306° West 397 457 21,500 1,500 Climbing Miami Center
04:14PM 26.6769 -81.1622 307° West 397 457 23,000 1,440 Climbing Miami Center
04:15PM 26.7447 -81.2647 306° West 408 470 24,400 1,200 Climbing Miami Center
04:16PM 26.8147 -81.3719 300° West 416 479 25,500 1,200 Climbing Miami Center
04:17PM 26.8678 -81.4742 299° West 422 486 26,900 1,200 Climbing Miami Center
04:18PM 26.9247 -81.5881 299° West 422 486 28,000 900 Climbing Miami Center
04:19PM 26.9833 -81.7069 300° West 427 491 28,800 900 Climbing Miami Center
04:20PM 27.0500 -81.8381 298° West 432 497 29,900 1,080 Climbing Miami Center
04:21PM 27.1083 -81.9594 293° West 432 497 31,000 1,080 Climbing Miami Center
04:22PM 27.1503 -82.0708 287° West 438 504 32,100 1,140 Climbing Miami Center
04:23PM 27.1850 -82.2008 286° West 432 497 33,300 1,200 Climbing Miami Center
04:24PM 27.2217 -82.3425 288° West 432 497 34,500 1,080 Climbing Miami Center
04:25PM 27.2564 -82.4656 286° West 424 488 35,500 720 Climbing Miami Center
04:26PM 27.2872 -82.5886 286° West 424 488 36,000 240 Climbing Miami Center
04:27PM 27.3142 -82.6972 286° West 424 488 36,000  Level Miami Center
04:28PM 27.3481 -82.8344 289° West 419 482 36,000  Level Miami Center
04:29PM 27.3831 -82.9486 286° West 424 488 36,000  Level Miami Center
04:30PM 27.4133 -83.0717 286° West 424 488 36,000  Level Miami Center
04:31PM 27.4453 -83.1997 286° West 424 488 36,000  Level Miami Center
04:32PM 27.4772 -83.3253 286° West 424 488 36,000  Level Miami Center
04:33PM 27.5089 -83.4511 287° West 424 488 36,000  Level Miami Center
04:34PM 27.5428 -83.5772 286° West 424 488 36,000  Level Miami Center
04:35PM 27.5744 -83.7031 285° West 424 488 36,000 -60 Level Miami Center
04:36PM 27.6039 -83.8289 287° West 424 488 35,900  Descending Miami Center
04:37PM 27.6372 -83.9550 285° West 424 488 36,000  Climbing Miami Center
04:38PM 27.6683 -84.0833 287° West 429 494 36,000  Level Miami Center
04:39PM 27.7017 -84.2094 287° West 429 494 36,000  Level Miami Center
04:40PM 27.7367 -84.3406 282° West 429 494 36,000  Level Miami Center
04:41PM 27.7611 -84.4689 288° West 424 488 36,000  Level Miami Center
04:42PM 27.7981 -84.5978 284° West 424 488 36,000  Level Miami Center
04:43PM 27.8358 -84.7675 287° West 445 512 36,000  Level Jacksonville Center
04:44PM 27.8675 -84.8878 286° West 434 499 36,000  Level Jacksonville Center
04:45PM 27.9008 -85.0225 285° West 428 493 36,000  Level Jacksonville Center
04:46PM 27.9319 -85.1544 286° West 433 498 36,000  Level Jacksonville Center
04:47PM 27.9631 -85.2775 285° West 433 498 36,000  Level Jacksonville Center
04:48PM 27.9958 -85.4122 285° West 433 498 36,000  Level Jacksonville Center
04:49PM 28.0267 -85.5469 286° West 439 505 36,000  Level Jacksonville Center
04:50PM 28.0575 -85.6700 284° West 433 498 36,000  Level Jacksonville Center
04:51PM 28.0878 -85.8050 285° West 428 493 36,000  Level Jacksonville Center
04:52PM 28.1183 -85.9306 285° West 433 498 36,000  Level Jacksonville Center
04:53PM 28.1503 -86.0681 285° West 439 505 36,000  Level Jacksonville Center
04:54PM 28.1806 -86.1961 284° West 432 497 36,000  Level Jacksonville Center
04:55PM 28.2106 -86.3289 286° West 437 503 36,000  Level Jacksonville Center
04:56PM 28.2425 -86.4594 283° West 437 503 36,000  Level Jacksonville Center
04:57PM 28.2681 -86.5831 286° West 431 496 36,000  Level Jacksonville Center
04:58PM 28.3017 -86.7208 285° West 436 502 36,000  Level Jacksonville Center
04:59PM 28.3331 -86.8564 285° West 436 502 36,000  Level Jacksonville Center
05:00PM 28.3586 -86.9683 284° West 430 495 36,000  Level Jacksonville Center
05:01PM 28.3878 -87.1039 284° West 437 503 36,000  Level Jacksonville Center
05:03PM 28.4453 -87.3631 285° West 449 517 36,000  Level Houston Center
05:04PM 28.4767 -87.4942 284° West 449 517 36,000 -60 Level Houston Center
05:05PM 28.5056 -87.6253 285° West 442 509 35,900  Descending Houston Center
05:06PM 28.5367 -87.7614 282° West 436 502 36,000  Climbing Houston Center
05:07PM 28.5611 -87.8906 293° West 431 496 36,000  Level Houston Center
05:08PM 28.6061 -88.0094 274° West 465 535 36,000 -60 Level Houston Center
05:09PM 28.6139 -88.1489 284° West 429 494 35,900  Descending Houston Center
05:10PM 28.6422 -88.2806 285° West 429 494 36,000  Climbing Houston Center
05:11PM 28.6728 -88.4122 285° West 429 494 36,000  Level Houston Center
05:12PM 28.7028 -88.5414 283° West 429 494 36,000  Level Houston Center
05:13PM 28.7308 -88.6756 282° West 429 494 36,000  Level Houston Center
05:14PM 28.7567 -88.8122 284° West 434 499 36,000  Level Houston Center
05:15PM 28.7844 -88.9444 282° West 434 499 36,000  Level Houston Center
05:16PM 28.8103 -89.0811 285° West 434 499 36,000  Level Houston Center
05:17PM 28.8397 -89.2108 283° West 429 494 36,000  Level Houston Center
05:18PM 28.8672 -89.3456 283° West 429 494 36,000  Level Houston Center
05:19PM 28.8944 -89.4778 282° West 429 494 36,000  Level Houston Center
05:20PM 28.9194 -89.6103 283° West 429 494 36,000  Level Houston Center
05:21PM 28.9464 -89.7450 284° West 429 494 36,000  Level Houston Center
05:22PM 28.9753 -89.8775 283° West 429 494 36,000 -60 Level Houston Center
05:23PM 29.0019 -90.0125 283° West 429 494 35,900  Descending Houston Center
05:26PM 29.0814 -90.4131 283° West 430 495 36,000  Climbing Houston Center
05:27PM 29.1097 -90.5506 282° West 435 501 36,000  Level Houston Center
05:28PM 29.1339 -90.6836 283° West 435 501 36,000  Level Houston Center
05:29PM 29.1619 -90.8211 280° West 435 501 36,000 -60 Level Houston Center
05:32PM 29.2222 -91.2325 278° West 435 501 35,900  Descending Houston Center
05:33PM 29.2394 -91.3683 278° West 435 501 36,000  Climbing Houston Center
05:34PM 29.2564 -91.5039 279° West 440 506 36,000  Level Houston Center
05:35PM 29.2753 -91.6444 280° West 447 514 36,000 -60 Level Houston Center
05:36PM 29.2961 -91.7825 277° West 447 514 35,900  Descending Houston Center
05:37PM 29.3106 -91.9256 279° West 448 516 36,000  Climbing Houston Center
05:38PM 29.3289 -92.0614 279° West 448 516 36,000 -60 Level Houston Center
05:39PM 29.3472 -92.2022 278° West 448 516 35,900  Descending Houston Center
05:40PM 29.3633 -92.3428 277° West 448 516 36,000  Climbing Houston Center
05:41PM 29.3792 -92.4836 278° West 448 516 36,000  Level Houston Center
05:42PM 29.3950 -92.6100 278° West 448 516 36,000  Level Houston Center
05:43PM 29.4128 -92.7508 278° West 448 516 36,000  Level Houston Center
05:44PM 29.4306 -92.8894 277° West 448 516 36,000  Level Houston Center
05:45PM 29.4458 -93.0303 277° West 448 516 36,000  Level Houston Center
05:46PM 29.4611 -93.1692 277° West 448 516 36,000 -60 Level Houston Center
05:47PM 29.4761 -93.3053 278° West 448 516 35,900 -60 Descending Houston Center
05:48PM 29.4933 -93.4439 278° West 443 510 35,900  Level Houston Center
05:49PM 29.5103 -93.5828 277° West 443 510 36,000  Climbing Houston Center
05:50PM 29.5247 -93.7214 277° West 443 510 36,000  Level Houston Center
05:51PM 29.5394 -93.8603 278° West 443 510 36,000  Level Houston Center
05:52PM 29.5558 -93.9992 277° West 443 510 36,000  Level Houston Center
05:53PM 29.5700 -94.1356 278° West 443 510 36,000  Level Houston Center
05:54PM 29.5883 -94.2839 277° West 438 504 36,000 -240 Level Houston Center
05:55PM 29.6022 -94.4206 278° West 438 504 35,600 -720 Descending Houston Center
05:56PM 29.6181 -94.5594 276° West 449 517 34,600 -1,020 Descending Houston Center
05:57PM 29.6317 -94.7008 277° West 455 524 33,600 -1,020 Descending Houston Center
05:58PM 29.6472 -94.8422 277° West 450 518 32,600 -1,020 Descending Houston Center
05:59PM 29.6625 -94.9861 277° West 450 518 31,600 -1,200 Descending Houston Center
06:00PM 29.6761 -95.1206 281° West 451 519 30,200 -840 Descending Houston Center
06:01PM 29.6994 -95.2575 305° West 451 519 30,000 -120 Descending Houston Center
06:02PM 29.7717 -95.3747 307° West 434 499 30,000  Level Houston Center
06:03PM 29.8456 -95.4878 285° West 439 505 30,000  Level Houston Center
06:04PM 29.8772 -95.6253 258° West 437 503 30,000 -300 Level Houston Center
06:05PM 29.8522 -95.7583 259° West 419 482 29,400 -780 Descending Houston Center
06:06PM 29.8297 -95.8867 259° West 419 482 28,500 -1,380 Descending Houston Center
06:07PM 29.8067 -96.0222 259° West 409 471 26,700 -1,860 Descending Houston Center
06:08PM 29.7858 -96.1481 270° West 404 465 24,800 -1,920 Descending Houston Center
06:09PM 29.7858 -96.2703 294° West 399 459 22,900 -1,920 Descending Houston Center
06:10PM 29.8281 -96.3822 299° West 376 433 21,000 -1,980 Descending Houston Center
06:11PM 29.8786 -96.4875 296° West 381 438 19,000 -1,920 Descending Houston Center
06:12PM 29.9228 -96.5925 297° West 381 438 17,200 -1,800 Descending Houston Center
06:13PM 29.9669 -96.6928 298° West 369 425 15,400 -1,800 Descending Houston Center
06:14PM 30.0114 -96.7908 297° West 359 413 13,600 -1,680 Descending Houston Center
06:15PM 30.0517 -96.8842 289° West 348 400 12,100 -780 Descending Houston Center
06:16PM 30.0811 -96.9817 288° West 328 377 12,100 -360 Level Houston Center
06:17PM 30.1050 -97.0644 289° West 323 372 11,400 -960 Descending Houston Center
06:18PM 30.1325 -97.1569 290° West 308 354 10,200 -1,320 Descending Houston Center
06:19PM 30.1583 -97.2400 290° West 292 336 8,800 -1,560 Descending Houston Center
06:20PM 30.1842 -97.3231 308° West 279 321 7,100 -1,800 Descending Houston Center
06:21PM 30.2314 -97.3931 306° West 271 312 5,300 -1,560 Descending Houston Center
06:22PM 30.2822 -97.4728 309° West 277 319 4,000 -660 Descending Houston Center
06:23PM 30.3292 -97.5403 291° West 277 319 4,000 -300 Level Houston Center
06:24PM 30.3514 -97.6064 253° West 250 288 3,400 -840 Descending Houston Center
06:25PM 30.3364 -97.6633 180° South 188 216 2,400 -720 Descending Houston Center
06:26PM 30.2925 -97.6631 180° South 143 165 2,000 -420 Descending Houston Center